Time;durP1;ratioP1;P1;durP2;ratioP2;P2;SDS_P1;SDS_P2;PMS_P1;PMS_P2;Temp;Humidity;BMP_temperature;BMP_pressure;BME280_temperature;BME280_humidity;BME280_pressure;Samples;Min_cycle;Max_cycle;Signal;HPM_P1;HPM_P2
2023/05/15 00:00:11;;;;;;;6.22;4.88;;;;;;;;;;5051335;28;20029;-76
2023/05/15 00:02:38;;;;;;;7.97;4.50;;;;;;;;;;5033350;28;20021;-76
2023/05/15 00:05:05;;;;;;;5.72;4.43;;;;;;;;;;5050895;28;20029;-76
2023/05/15 00:07:31;;;;;;;4.50;3.97;;;;;;;;;;5050033;28;20017;-75
2023/05/15 00:09:57;;;;;;;5.18;4.05;;;;;;;;;;5033184;28;20087;-77
2023/05/15 00:12:23;;;;;;;5.68;4.68;;;;;;;;;;5051180;28;20021;-76
2023/05/15 00:14:49;;;;;;;5.10;4.43;;;;;;;;;;5051070;28;20033;-77
2023/05/15 00:17:15;;;;;;;4.72;3.88;;;;;;;;;;5054148;28;20533;-75
2023/05/15 00:19:41;;;;;;;4.80;4.05;;;;;;;;;;5054929;28;20079;-76
2023/05/15 00:22:08;;;;;;;4.13;3.72;;;;;;;;;;5054511;28;20029;-76
2023/05/15 00:24:34;;;;;;;4.72;4.10;;;;;;;;;;5054816;28;20549;-76
2023/05/15 00:27:00;;;;;;;4.68;3.88;;;;;;;;;;5054473;28;20033;-74
2023/05/15 00:29:26;;;;;;;5.68;4.00;;;;;;;;;;5054303;28;20582;-76
2023/05/15 00:31:52;;;;;;;4.78;4.05;;;;;;;;;;5054537;28;20104;-75
2023/05/15 00:34:18;;;;;;;4.40;4.00;;;;;;;;;;5036768;28;20029;-76
2023/05/15 00:36:44;;;;;;;6.38;4.82;;;;;;;;;;5054389;28;20021;-75
2023/05/15 00:39:11;;;;;;;4.93;4.40;;;;;;;;;;5036141;28;20426;-76
2023/05/15 00:41:37;;;;;;;4.78;4.30;;;;;;;;;;5054750;28;20478;-76
2023/05/15 00:44:03;;;;;;;5.22;4.72;;;;;;;;;;5054397;28;20483;-75
2023/05/15 00:46:33;;;;;;;6.22;5.30;;;;;;;;;;5061019;22;20044;-77
2023/05/15 00:48:59;;;;;;;5.43;4.85;;;;;;;;;;5034955;28;20033;-76
2023/05/15 00:51:25;;;;;;;5.63;4.78;;;;;;;;;;5034443;28;20028;-76
2023/05/15 00:53:52;;;;;;;6.63;4.60;;;;;;;;;;5034277;28;20028;-76
2023/05/15 00:56:18;;;;;;;5.82;5.18;;;;;;;;;;5034187;28;20053;-75
2023/05/15 00:58:46;;;;;;;7.03;5.40;;;;;;;;;;5034174;28;20466;-76
2023/05/15 01:01:16;;;;;;;5.63;4.97;;;;;;;;;;5016514;28;20549;-76
2023/05/15 01:03:43;;;;;;;6.20;5.55;;;;;;;;;;5034351;28;20407;-76
2023/05/15 01:06:09;;;;;;;7.38;5.85;;;;;;;;;;5034043;28;20025;-76
2023/05/15 01:08:42;;;;;;;5.72;5.00;;;;;;;;;;5033649;28;20084;-76
2023/05/15 01:11:08;;;;;;;5.28;4.78;;;;;;;;;;5034071;28;20024;-77
2023/05/15 01:13:34;;;;;;;6.13;5.13;;;;;;;;;;5034040;28;20025;-76
2023/05/15 01:16:00;;;;;;;5.60;5.10;;;;;;;;;;5033909;28;20021;-75
2023/05/15 01:18:33;;;;;;;7.13;4.95;;;;;;;;;;5032940;28;20146;-76
2023/05/15 01:21:04;;;;;;;5.93;5.32;;;;;;;;;;5033826;28;20029;-76
2023/05/15 01:23:38;;;;;;;5.20;4.53;;;;;;;;;;5033677;28;20361;-75
2023/05/15 01:26:07;;;;;;;5.70;4.75;;;;;;;;;;5033469;28;20467;-75
2023/05/15 01:28:39;;;;;;;4.95;4.53;;;;;;;;;;5032051;28;20037;-76
2023/05/15 01:31:10;;;;;;;6.82;5.43;;;;;;;;;;5015712;28;20079;-76
2023/05/15 01:33:38;;;;;;;5.57;4.97;;;;;;;;;;5033551;28;20033;-76
2023/05/15 01:36:05;;;;;;;5.72;4.85;;;;;;;;;;5033277;28;20107;-76
2023/05/15 01:38:36;;;;;;;6.88;5.00;;;;;;;;;;5032683;28;20048;-76
2023/05/15 01:41:07;;;;;;;7.55;4.97;;;;;;;;;;5033233;28;20575;-76
2023/05/15 01:43:34;;;;;;;4.97;4.40;;;;;;;;;;5033291;28;20483;-75
2023/05/15 01:46:00;;;;;;;5.10;4.60;;;;;;;;;;5032976;28;20021;-76
2023/05/15 01:48:28;;;;;;;5.15;4.47;;;;;;;;;;5032461;28;20083;-76
2023/05/15 01:50:54;;;;;;;5.28;4.50;;;;;;;;;;5033395;28;20064;-76
2023/05/15 01:53:20;;;;;;;7.15;4.40;;;;;;;;;;5033322;28;20024;-76
2023/05/15 01:55:48;;;;;;;6.30;4.65;;;;;;;;;;5033007;28;20438;-76
2023/05/15 01:58:15;;;;;;;6.63;5.32;;;;;;;;;;5015080;28;20476;-76
2023/05/15 02:00:41;;;;;;;6.40;4.95;;;;;;;;;;5024296;28;20480;-76
2023/05/15 02:03:08;;;;;;;6.47;5.43;;;;;;;;;;5032696;28;20036;-75
2023/05/15 02:05:34;;;;;;;6.65;5.05;;;;;;;;;;5032891;28;20078;-75
2023/05/15 02:08:02;;;;;;;5.20;4.70;;;;;;;;;;5032300;28;20487;-75
2023/05/15 02:10:28;;;;;;;5.93;4.65;;;;;;;;;;5015219;28;20021;-76
2023/05/15 02:12:54;;;;;;;6.22;5.50;;;;;;;;;;5031749;28;20045;-76
2023/05/15 02:15:21;;;;;;;7.03;5.57;;;;;;;;;;5032807;28;20471;-75
2023/05/15 02:17:47;;;;;;;7.25;5.65;;;;;;;;;;5014267;28;20108;-75
2023/05/15 02:20:13;;;;;;;5.78;5.00;;;;;;;;;;5032820;28;20516;-75
2023/05/15 02:22:39;;;;;;;5.35;4.78;;;;;;;;;;5014901;28;20488;-75
2023/05/15 02:25:05;;;;;;;6.15;5.55;;;;;;;;;;5015073;28;20029;-75
2023/05/15 02:27:50;;;;;;;6.25;5.65;;;;;;;;;;5031790;28;20463;-75
2023/05/15 02:30:28;;;;;;;8.75;5.78;;;;;;;;;;5032455;28;20030;-76
2023/05/15 02:33:20;;;;;;;7.35;5.85;;;;;;;;;;5032314;28;20112;-75
2023/05/15 02:36:04;;;;;;;7.20;5.90;;;;;;;;;;5032410;28;20026;-76
2023/05/15 02:38:33;;;;;;;7.07;5.80;;;;;;;;;;5034887;28;20475;-75
2023/05/15 02:41:00;;;;;;;7.43;6.25;;;;;;;;;;5052080;28;20028;-75
2023/05/15 02:43:26;;;;;;;7.55;5.90;;;;;;;;;;5036812;28;20025;-76
2023/05/15 02:45:52;;;;;;;6.65;5.82;;;;;;;;;;5032312;28;20486;-75
2023/05/15 02:48:18;;;;;;;6.82;5.97;;;;;;;;;;5021762;28;20033;-76
2023/05/15 02:50:44;;;;;;;6.80;6.03;;;;;;;;;;5032549;28;20029;-76
2023/05/15 02:53:13;;;;;;;8.27;5.60;;;;;;;;;;5033539;28;20399;-76
2023/05/15 02:55:39;;;;;;;7.47;5.97;;;;;;;;;;5023087;28;20806;-76
2023/05/15 02:58:05;;;;;;;7.38;5.82;;;;;;;;;;5030502;28;20036;-76
2023/05/15 03:00:31;;;;;;;6.80;5.90;;;;;;;;;;5031919;28;20029;-76
2023/05/15 03:02:57;;;;;;;6.80;6.10;;;;;;;;;;5031575;28;20487;-76
2023/05/15 03:05:23;;;;;;;6.70;5.57;;;;;;;;;;5030496;28;20026;-76
2023/05/15 03:07:49;;;;;;;6.47;5.22;;;;;;;;;;5030217;28;20083;-75
2023/05/15 03:10:16;;;;;;;6.22;5.63;;;;;;;;;;5031553;28;20034;-76
2023/05/15 03:12:42;;;;;;;6.72;5.93;;;;;;;;;;5031911;28;20024;-76
2023/05/15 03:15:08;;;;;;;10.20;7.35;;;;;;;;;;5031918;28;20403;-76
2023/05/15 03:17:34;;;;;;;7.05;6.03;;;;;;;;;;5031392;28;20029;-76
2023/05/15 03:20:00;;;;;;;8.57;6.13;;;;;;;;;;5031972;28;20026;-76
2023/05/15 03:22:26;;;;;;;8.52;6.60;;;;;;;;;;5031245;28;20533;-76
2023/05/15 03:24:52;;;;;;;8.20;6.47;;;;;;;;;;5031556;28;20021;-76
2023/05/15 03:27:18;;;;;;;8.10;7.18;;;;;;;;;;5030691;28;20030;-75
2023/05/15 03:29:44;;;;;;;8.60;6.28;;;;;;;;;;5031368;28;20033;-76
2023/05/15 03:32:10;;;;;;;7.43;6.65;;;;;;;;;;5031453;28;20021;-76
2023/05/15 03:34:36;;;;;;;8.75;6.70;;;;;;;;;;5031536;28;20021;-76
2023/05/15 03:37:02;;;;;;;9.15;6.65;;;;;;;;;;5030864;28;20099;-78
2023/05/15 03:39:28;;;;;;;10.10;7.38;;;;;;;;;;5031398;28;20108;-76
2023/05/15 03:41:54;;;;;;;8.60;7.55;;;;;;;;;;5031458;28;20032;-75
2023/05/15 03:44:20;;;;;;;6.88;6.10;;;;;;;;;;5013452;28;20082;-76
2023/05/15 03:46:46;;;;;;;7.95;6.15;;;;;;;;;;5009858;28;20112;-75
2023/05/15 03:49:12;;;;;;;9.10;6.55;;;;;;;;;;5010854;28;20388;-76
2023/05/15 03:51:38;;;;;;;8.85;6.60;;;;;;;;;;5010840;28;20026;-76
2023/05/15 03:54:04;;;;;;;9.20;6.53;;;;;;;;;;5024011;28;20571;-76
2023/05/15 03:56:31;;;;;;;11.13;6.18;;;;;;;;;;5013224;28;20026;-76
2023/05/15 03:58:57;;;;;;;6.63;5.93;;;;;;;;;;5030505;28;20037;-76
2023/05/15 04:01:23;;;;;;;8.07;6.38;;;;;;;;;;5031021;28;20057;-76
2023/05/15 04:03:49;;;;;;;6.38;5.78;;;;;;;;;;5033195;28;20112;-76
2023/05/15 04:06:15;;;;;;;7.75;5.50;;;;;;;;;;5042463;28;20026;-76
2023/05/15 04:08:41;;;;;;;7.75;5.53;;;;;;;;;;5028926;28;20026;-76
2023/05/15 04:11:07;;;;;;;6.97;5.57;;;;;;;;;;5032250;28;20014;-76
2023/05/15 04:13:33;;;;;;;5.60;5.10;;;;;;;;;;5030816;28;20022;-76
2023/05/15 04:15:59;;;;;;;7.03;5.28;;;;;;;;;;5013305;28;20108;-76
2023/05/15 04:18:25;;;;;;;5.50;4.75;;;;;;;;;;5029461;28;20029;-75
2023/05/15 04:20:51;;;;;;;5.90;4.50;;;;;;;;;;5011806;28;20107;-76
2023/05/15 04:23:17;;;;;;;6.82;4.57;;;;;;;;;;5029672;28;20039;-76
2023/05/15 04:25:45;;;;;;;5.75;4.95;;;;;;;;;;5030620;28;20018;-76
2023/05/15 04:28:12;;;;;;;7.35;5.00;;;;;;;;;;5029389;28;20017;-76
2023/05/15 04:30:38;;;;;;;8.82;4.72;;;;;;;;;;5030492;28;20041;-76
2023/05/15 04:33:04;;;;;;;5.72;4.53;;;;;;;;;;5030229;28;20326;-76
2023/05/15 04:35:30;;;;;;;7.57;4.80;;;;;;;;;;5012781;28;20032;-76
2023/05/15 04:37:56;;;;;;;7.32;5.05;;;;;;;;;;5030721;28;20407;-76
2023/05/15 04:40:22;;;;;;;6.00;4.55;;;;;;;;;;5031509;28;20033;-76
2023/05/15 04:42:48;;;;;;;7.10;4.85;;;;;;;;;;5030783;28;20030;-77
2023/05/15 04:45:14;;;;;;;5.90;4.82;;;;;;;;;;5030976;28;20020;-76
2023/05/15 04:47:40;;;;;;;5.90;4.32;;;;;;;;;;5030072;28;20073;-76
2023/05/15 04:50:07;;;;;;;7.65;5.10;;;;;;;;;;5030662;28;20025;-76
2023/05/15 04:52:33;;;;;;;5.45;4.95;;;;;;;;;;5013050;28;20512;-76
2023/05/15 04:54:59;;;;;;;5.50;4.30;;;;;;;;;;5030623;28;20186;-76
2023/05/15 04:57:26;;;;;;;5.40;4.18;;;;;;;;;;5029806;28;20032;-76
2023/05/15 04:59:52;;;;;;;6.13;4.50;;;;;;;;;;5030524;28;20033;-76
2023/05/15 05:02:21;;;;;;;6.07;5.05;;;;;;;;;;5013073;28;20029;-76
2023/05/15 05:04:47;;;;;;;5.40;4.70;;;;;;;;;;5016046;28;20025;-76
2023/05/15 05:07:13;;;;;;;6.05;4.95;;;;;;;;;;5033424;28;20060;-77
2023/05/15 05:09:40;;;;;;;7.95;5.68;;;;;;;;;;5034835;28;20092;-77
2023/05/15 05:12:06;;;;;;;6.40;5.80;;;;;;;;;;5035757;28;20026;-76
2023/05/15 05:14:32;;;;;;;6.82;6.22;;;;;;;;;;5033647;28;20028;-76
2023/05/15 05:16:58;;;;;;;10.48;6.65;;;;;;;;;;5033291;28;20036;-76
2023/05/15 05:19:26;;;;;;;7.35;6.00;;;;;;;;;;5035645;28;20022;-77
2023/05/15 05:21:52;;;;;;;6.60;5.90;;;;;;;;;;5036380;28;20025;-77
2023/05/15 05:24:18;;;;;;;7.93;6.10;;;;;;;;;;5038660;28;20030;-77
2023/05/15 05:26:45;;;;;;;8.00;6.05;;;;;;;;;;5022227;28;20021;-77
2023/05/15 05:29:11;;;;;;;11.65;6.32;;;;;;;;;;5029398;28;20033;-77
2023/05/15 05:31:37;;;;;;;7.97;5.95;;;;;;;;;;5023953;28;20100;-77
2023/05/15 05:34:03;;;;;;;6.45;5.40;;;;;;;;;;5033647;28;20040;-77
2023/05/15 05:36:29;;;;;;;7.75;5.45;;;;;;;;;;5034993;28;20049;-75
2023/05/15 05:38:55;;;;;;;7.82;5.53;;;;;;;;;;5032883;28;20428;-76
2023/05/15 05:41:21;;;;;;;8.02;6.25;;;;;;;;;;5033301;28;20021;-75
2023/05/15 05:43:47;;;;;;;11.48;6.38;;;;;;;;;;5034130;28;20030;-77
2023/05/15 05:46:13;;;;;;;11.43;6.57;;;;;;;;;;5033035;28;20049;-76
2023/05/15 05:48:39;;;;;;;8.80;6.45;;;;;;;;;;5032594;28;20029;-77
2023/05/15 05:51:05;;;;;;;9.90;5.93;;;;;;;;;;5033120;28;20029;-76
2023/05/15 05:53:31;;;;;;;8.05;6.10;;;;;;;;;;5033466;28;20049;-76
2023/05/15 05:55:57;;;;;;;8.02;5.50;;;;;;;;;;5033246;28;20344;-77
2023/05/15 05:58:23;;;;;;;7.40;5.32;;;;;;;;;;5032568;28;20030;-76
2023/05/15 06:00:49;;;;;;;9.23;4.90;;;;;;;;;;5015094;28;20040;-76
2023/05/15 06:03:15;;;;;;;8.20;5.47;;;;;;;;;;5017032;28;20025;-76
2023/05/15 06:05:41;;;;;;;7.15;4.85;;;;;;;;;;5033758;28;20087;-76
2023/05/15 06:08:08;;;;;;;11.90;5.80;;;;;;;;;;5034120;28;20100;-77
2023/05/15 06:10:34;;;;;;;10.25;5.30;;;;;;;;;;5037151;28;20501;-76
2023/05/15 06:13:00;;;;;;;7.55;5.00;;;;;;;;;;5034518;28;20060;-77
2023/05/15 06:15:26;;;;;;;6.22;4.90;;;;;;;;;;5036040;28;20018;-77
2023/05/15 06:17:55;;;;;;;7.45;4.85;;;;;;;;;;5035200;28;20030;-77
2023/05/15 06:20:21;;;;;;;8.60;4.45;;;;;;;;;;5033711;28;20075;-76
2023/05/15 06:22:48;;;;;;;9.15;4.60;;;;;;;;;;5032957;28;20557;-76
2023/05/15 06:25:14;;;;;;;8.60;4.50;;;;;;;;;;5031747;28;20103;-76
2023/05/15 06:27:41;;;;;;;9.88;5.22;;;;;;;;;;5031676;28;20152;-76
2023/05/15 06:30:08;;;;;;;10.13;4.50;;;;;;;;;;5015447;28;20029;-75
2023/05/15 06:32:34;;;;;;;5.55;4.20;;;;;;;;;;5032347;28;20479;-76
2023/05/15 06:35:00;;;;;;;11.38;5.07;;;;;;;;;;5017688;28;20056;-77
2023/05/15 06:37:27;;;;;;;8.63;4.35;;;;;;;;;;5032892;28;20377;-76
2023/05/15 06:39:53;;;;;;;9.30;4.13;;;;;;;;;;5033390;28;20025;-76
2023/05/15 06:42:19;;;;;;;5.32;4.40;;;;;;;;;;5040030;28;20541;-77
2023/05/15 06:44:46;;;;;;;6.95;4.00;;;;;;;;;;5035525;28;20037;-77
2023/05/15 06:47:12;;;;;;;6.55;4.82;;;;;;;;;;5032558;28;20092;-75
2023/05/15 06:49:38;;;;;;;5.13;4.47;;;;;;;;;;5031763;28;20476;-75
2023/05/15 06:52:04;;;;;;;5.53;4.15;;;;;;;;;;5032315;28;20053;-75
2023/05/15 06:54:30;;;;;;;5.35;4.38;;;;;;;;;;5031881;28;20047;-75
2023/05/15 06:56:56;;;;;;;5.78;4.65;;;;;;;;;;5031334;28;20463;-75
2023/05/15 06:59:22;;;;;;;5.60;4.10;;;;;;;;;;5030132;28;20060;-76
2023/05/15 07:01:48;;;;;;;8.45;4.63;;;;;;;;;;5032491;28;20057;-75
2023/05/15 07:04:14;;;;;;;5.07;4.57;;;;;;;;;;5031094;28;20013;-75
2023/05/15 07:06:41;;;;;;;6.90;4.20;;;;;;;;;;5030726;28;20076;-74
2023/05/15 07:09:07;;;;;;;6.35;4.78;;;;;;;;;;5029328;28;20109;-75
2023/05/15 07:11:36;;;;;;;7.90;4.65;;;;;;;;;;5012569;28;20476;-75
2023/05/15 07:14:02;;;;;;;6.55;5.00;;;;;;;;;;5030246;28;20622;-75
2023/05/15 07:16:28;;;;;;;7.13;5.25;;;;;;;;;;5029770;28;20077;-75
2023/05/15 07:18:54;;;;;;;5.45;4.40;;;;;;;;;;5029292;28;20421;-74
2023/05/15 07:21:20;;;;;;;10.15;4.82;;;;;;;;;;5012164;28;20120;-75
2023/05/15 07:23:46;;;;;;;5.65;4.15;;;;;;;;;;5031104;28;20021;-75
2023/05/15 07:26:15;;;;;;;4.97;4.15;;;;;;;;;;5031232;28;20056;-75
2023/05/15 07:28:41;;;;;;;5.85;4.80;;;;;;;;;;5030795;28;20096;-75
2023/05/15 07:31:07;;;;;;;7.13;4.72;;;;;;;;;;5031540;28;20018;-75
2023/05/15 07:33:33;;;;;;;7.25;4.50;;;;;;;;;;5031301;28;20078;-74
2023/05/15 07:35:59;;;;;;;6.28;4.63;;;;;;;;;;5031550;28;20104;-74
2023/05/15 07:38:25;;;;;;;5.38;4.63;;;;;;;;;;5030660;28;20553;-75
2023/05/15 07:40:51;;;;;;;7.78;4.75;;;;;;;;;;5031333;28;20033;-74
2023/05/15 07:43:17;;;;;;;4.97;4.43;;;;;;;;;;5031582;28;20031;-73
2023/05/15 07:45:45;;;;;;;9.40;5.18;;;;;;;;;;5031296;28;20207;-74
2023/05/15 07:48:14;;;;;;;5.40;4.90;;;;;;;;;;5030076;28;20038;-73
2023/05/15 07:50:41;;;;;;;5.25;4.75;;;;;;;;;;5012051;28;20103;-73
2023/05/15 07:53:07;;;;;;;6.22;5.05;;;;;;;;;;5031060;28;20048;-74
2023/05/15 07:55:33;;;;;;;8.93;4.57;;;;;;;;;;5031186;28;20029;-74
2023/05/15 07:57:59;;;;;;;6.50;5.40;;;;;;;;;;5030378;28;20112;-74
2023/05/15 08:00:25;;;;;;;6.70;5.05;;;;;;;;;;5031034;28;20120;-74
2023/05/15 08:02:51;;;;;;;8.43;5.55;;;;;;;;;;5013087;28;20104;-74
2023/05/15 08:05:17;;;;;;;7.95;5.70;;;;;;;;;;5031259;28;20025;-74
2023/05/15 08:07:43;;;;;;;9.68;5.63;;;;;;;;;;5030312;28;20022;-74
2023/05/15 08:10:10;;;;;;;7.38;5.53;;;;;;;;;;5030819;28;20095;-74
2023/05/15 08:12:36;;;;;;;12.38;5.65;;;;;;;;;;5013255;28;20025;-74
2023/05/15 08:15:02;;;;;;;7.97;6.35;;;;;;;;;;5030665;28;20492;-74
2023/05/15 08:17:28;;;;;;;8.13;6.07;;;;;;;;;;5030295;28;20372;-74
2023/05/15 08:19:55;;;;;;;6.43;5.30;;;;;;;;;;5031469;28;20025;-74
2023/05/15 08:22:21;;;;;;;6.60;5.05;;;;;;;;;;5037144;28;20033;-73
2023/05/15 08:24:47;;;;;;;6.93;5.43;;;;;;;;;;5037485;28;20108;-74
2023/05/15 08:27:13;;;;;;;13.07;6.00;;;;;;;;;;5036725;28;20029;-74
2023/05/15 08:29:39;;;;;;;8.90;5.25;;;;;;;;;;5023460;28;20399;-74
2023/05/15 08:32:06;;;;;;;5.22;4.65;;;;;;;;;;5039587;28;20017;-74
2023/05/15 08:34:32;;;;;;;8.02;5.78;;;;;;;;;;5031948;28;20022;-74
2023/05/15 08:36:59;;;;;;;10.38;5.40;;;;;;;;;;5032603;28;20565;-72
2023/05/15 08:39:25;;;;;;;8.50;5.80;;;;;;;;;;5034400;28;20029;-74
2023/05/15 08:41:56;;;;;;;9.18;5.75;;;;;;;;;;5035016;28;20099;-73
2023/05/15 08:44:22;;;;;;;;;;;;;;;;;;5034890;28;20018;-74
2023/05/15 08:46:48;;;;;;;9.55;5.40;;;;;;;;;;5034180;28;19923;-74
2023/05/15 08:49:27;;;;;;;8.13;6.07;;;;;;;;;;5015971;28;20026;-74
2023/05/15 08:51:53;;;;;;;9.18;6.07;;;;;;;;;;5016738;28;20028;-74
2023/05/15 08:54:19;;;;;;;7.70;5.20;;;;;;;;;;5034117;28;20033;-73
2023/05/15 08:56:45;;;;;;;6.78;6.00;;;;;;;;;;5034399;28;20037;-74
2023/05/15 08:59:11;;;;;;;10.07;6.05;;;;;;;;;;5033336;28;20033;-74
2023/05/15 09:01:37;;;;;;;9.98;5.93;;;;;;;;;;5034166;28;20061;-74
2023/05/15 09:04:04;;;;;;;10.70;7.07;;;;;;;;;;5033995;28;20080;-74
2023/05/15 09:06:31;;;;;;;11.15;6.25;;;;;;;;;;5033912;28;20021;-74
2023/05/15 09:08:59;;;;;;;7.60;6.55;;;;;;;;;;5033645;28;20032;-74
2023/05/15 09:11:26;;;;;;;10.82;6.95;;;;;;;;;;5016014;28;20411;-73
2023/05/15 09:13:52;;;;;;;11.13;6.35;;;;;;;;;;5033873;28;20029;-74
2023/05/15 09:16:20;;;;;;;7.95;6.05;;;;;;;;;;5033663;28;20022;-73
2023/05/15 09:18:46;;;;;;;8.00;6.15;;;;;;;;;;5033002;28;20026;-76
2023/05/15 09:21:24;;;;;;;8.13;6.53;;;;;;;;;;5033697;28;20167;-74
2023/05/15 09:23:51;;;;;;;10.23;6.35;;;;;;;;;;5033420;28;20388;-74
2023/05/15 09:26:16;;;;;;;8.95;6.43;;;;;;;;;;5033588;28;20096;-74
2023/05/15 09:28:43;;;;;;;12.30;6.55;;;;;;;;;;5032877;28;20546;-74
2023/05/15 09:31:09;;;;;;;9.63;6.70;;;;;;;;;;5033575;28;20032;-74
2023/05/15 09:33:36;;;;;;;10.10;6.88;;;;;;;;;;5033578;28;20487;-74
2023/05/15 09:36:03;;;;;;;7.53;5.97;;;;;;;;;;5033387;28;20026;-74
2023/05/15 09:38:31;;;;;;;8.70;6.47;;;;;;;;;;5032422;28;20451;-74
2023/05/15 09:41:01;;;;;;;8.05;7.10;;;;;;;;;;5033273;28;20022;-73
2023/05/15 09:43:28;;;;;;;10.10;6.07;;;;;;;;;;5033113;28;20036;-73
2023/05/15 09:45:54;;;;;;;6.50;5.80;;;;;;;;;;5030030;28;20056;-73
2023/05/15 09:48:20;;;;;;;8.48;6.35;;;;;;;;;;5030190;28;20049;-74
2023/05/15 09:50:47;;;;;;;7.18;6.40;;;;;;;;;;5031624;28;20029;-74
2023/05/15 09:53:14;;;;;;;8.55;6.32;;;;;;;;;;5033091;28;20025;-74
2023/05/15 09:55:42;;;;;;;11.52;6.03;;;;;;;;;;5032999;28;20100;-74
2023/05/15 09:58:08;;;;;;;7.30;5.90;;;;;;;;;;5032566;28;20083;-74
2023/05/15 10:00:35;;;;;;;8.05;6.03;;;;;;;;;;5031623;28;20096;-74
2023/05/15 10:03:02;;;;;;;8.07;5.82;;;;;;;;;;5032884;28;20128;-73
2023/05/15 10:05:28;;;;;;;7.75;6.00;;;;;;;;;;5032890;28;20113;-74
2023/05/15 10:07:57;;;;;;;9.10;5.65;;;;;;;;;;5032226;28;20463;-74
2023/05/15 10:10:24;;;;;;;8.80;5.30;;;;;;;;;;5032822;28;20041;-74
2023/05/15 10:12:51;;;;;;;11.88;5.78;;;;;;;;;;5032780;28;20026;-74
2023/05/15 10:15:18;;;;;;;6.50;5.88;;;;;;;;;;5032478;28;20541;-74
2023/05/15 10:17:46;;;;;;;14.05;5.88;;;;;;;;;;5031804;28;20108;-73
2023/05/15 10:20:13;;;;;;;10.20;6.40;;;;;;;;;;5032634;28;20021;-77
2023/05/15 10:22:41;;;;;;;10.68;6.20;;;;;;;;;;5032726;28;20025;-75
2023/05/15 10:25:33;;;;;;;6.40;5.57;;;;;;;;;;5032412;28;20368;-75
2023/05/15 10:28:00;;;;;;;8.10;5.40;;;;;;;;;;4994569;28;20034;-75
2023/05/15 10:30:26;;;;;;;5.90;4.85;;;;;;;;;;5032401;28;20033;-75
2023/05/15 10:32:53;;;;;;;7.07;5.63;;;;;;;;;;5014806;28;20487;-75
2023/05/15 10:35:19;;;;;;;8.27;5.28;;;;;;;;;;5032362;28;20440;-73
2023/05/15 10:37:46;;;;;;;5.28;4.63;;;;;;;;;;5031602;28;20116;-73
2023/05/15 10:40:12;;;;;;;8.02;5.25;;;;;;;;;;5032230;28;20052;-74
2023/05/15 10:42:41;;;;;;;7.90;4.90;;;;;;;;;;5031923;28;20022;-74
2023/05/15 10:45:07;;;;;;;6.82;4.60;;;;;;;;;;5031735;28;20033;-74
2023/05/15 10:47:34;;;;;;;8.38;4.53;;;;;;;;;;5031202;28;20036;-74
2023/05/15 10:50:01;;;;;;;11.63;5.70;;;;;;;;;;5031788;28;20147;-73
2023/05/15 10:52:27;;;;;;;11.48;5.00;;;;;;;;;;5032013;28;20048;-74
2023/05/15 10:54:53;;;;;;;9.30;5.03;;;;;;;;;;5031672;28;20032;-74
2023/05/15 10:57:22;;;;;;;7.57;4.63;;;;;;;;;;5030897;28;20029;-75
2023/05/15 10:59:49;;;;;;;7.38;4.70;;;;;;;;;;5029526;28;20072;-75
2023/05/15 11:02:19;;;;;;;11.25;4.93;;;;;;;;;;5032019;28;20056;-74
2023/05/15 11:04:45;;;;;;;10.60;4.82;;;;;;;;;;5031987;28;20036;-74
2023/05/15 11:07:12;;;;;;;8.77;4.45;;;;;;;;;;5031057;28;20029;-74
2023/05/15 11:09:39;;;;;;;9.52;4.90;;;;;;;;;;5031759;28;20025;-74
2023/05/15 11:12:06;;;;;;;9.10;5.50;;;;;;;;;;5031609;28;20243;-75
2023/05/15 11:14:34;;;;;;;5.70;5.13;;;;;;;;;;5014300;28;20087;-74
2023/05/15 11:17:05;;;;;;;9.57;5.93;;;;;;;;;;5031362;28;20121;-74
2023/05/15 11:19:31;;;;;;;12.43;5.45;;;;;;;;;;5031140;28;20068;-74
2023/05/15 11:21:57;;;;;;;6.63;5.10;;;;;;;;;;5031036;28;20033;-73
2023/05/15 11:24:41;;;;;;;11.02;6.18;;;;;;;;;;5031476;28;20522;-74
2023/05/15 11:27:12;;;;;;;6.00;5.40;;;;;;;;;;5030727;28;20186;-74
2023/05/15 11:29:57;;;;;;;5.43;4.82;;;;;;;;;;5031267;28;20025;-74
2023/05/15 11:32:42;;;;;;;8.73;5.30;;;;;;;;;;5029648;28;20507;-73
2023/05/15 11:35:12;;;;;;;12.30;5.60;;;;;;;;;;5029155;28;20148;-75
2023/05/15 11:37:42;;;;;;;7.43;5.40;;;;;;;;;;5030072;28;20361;-74
2023/05/15 11:40:12;;;;;;;8.90;5.45;;;;;;;;;;5030127;28;20520;-74
2023/05/15 11:42:38;;;;;;;5.30;4.80;;;;;;;;;;5028975;28;20107;-74
2023/05/15 11:45:04;;;;;;;6.97;5.10;;;;;;;;;;5031386;28;20028;-74
2023/05/15 11:47:30;;;;;;;10.02;5.47;;;;;;;;;;5028374;28;20511;-74
2023/05/15 11:49:57;;;;;;;13.30;6.80;;;;;;;;;;5030969;28;20028;-74
2023/05/15 11:52:24;;;;;;;14.77;7.63;;;;;;;;;;5031016;28;20020;-74
2023/05/15 11:54:50;;;;;;;12.50;7.80;;;;;;;;;;5030849;28;20025;-74
2023/05/15 11:57:19;;;;;;;11.15;9.55;;;;;;;;;;5029837;28;20075;-73
2023/05/15 11:59:45;;;;;;;9.13;7.85;;;;;;;;;;5031054;28;20402;-74
2023/05/15 12:02:11;;;;;;;9.23;7.72;;;;;;;;;;5030968;28;20061;-74
2023/05/15 12:04:37;;;;;;;11.20;8.13;;;;;;;;;;5029640;28;20076;-74
2023/05/15 12:07:03;;;;;;;13.43;7.50;;;;;;;;;;5029858;28;20067;-72
2023/05/15 12:09:29;;;;;;;12.30;8.73;;;;;;;;;;5030608;28;20018;-74
2023/05/15 12:11:55;;;;;;;9.82;7.68;;;;;;;;;;5032476;28;20037;-74
2023/05/15 12:14:32;;;;;;;10.00;8.25;;;;;;;;;;5016521;28;20021;-74
2023/05/15 12:17:03;;;;;;;8.35;6.88;;;;;;;;;;5034109;28;20060;-73
2023/05/15 12:19:29;;;;;;;10.52;7.68;;;;;;;;;;5034715;28;20464;-73
2023/05/15 12:21:55;;;;;;;9.10;8.18;;;;;;;;;;5034705;28;20026;-74
2023/05/15 12:24:21;;;;;;;9.20;8.30;;;;;;;;;;5034518;28;20033;-73
2023/05/15 12:26:48;;;;;;;9.77;8.10;;;;;;;;;;5034743;28;20052;-74
2023/05/15 12:29:14;;;;;;;8.18;6.78;;;;;;;;;;5034043;28;20074;-74
2023/05/15 12:31:40;;;;;;;8.20;6.93;;;;;;;;;;5033635;28;20025;-74
2023/05/15 12:34:07;;;;;;;8.77;7.07;;;;;;;;;;5033512;28;20036;-74
2023/05/15 12:36:33;;;;;;;7.90;7.10;;;;;;;;;;5033351;28;20112;-74
2023/05/15 12:39:04;;;;;;;7.10;6.32;;;;;;;;;;5033125;28;20423;-74
2023/05/15 12:41:30;;;;;;;9.73;6.90;;;;;;;;;;5034148;28;20025;-75
2023/05/15 12:43:56;;;;;;;8.07;6.40;;;;;;;;;;5033858;28;20032;-74
2023/05/15 12:46:32;;;;;;;7.22;6.55;;;;;;;;;;5034702;28;20044;-73
2023/05/15 12:48:59;;;;;;;11.82;8.02;;;;;;;;;;5034214;28;20025;-74
2023/05/15 12:51:25;;;;;;;10.07;7.15;;;;;;;;;;5034329;28;20041;-74
2023/05/15 12:53:54;;;;;;;13.15;7.38;;;;;;;;;;5034717;28;20423;-74
2023/05/15 12:56:20;;;;;;;12.23;7.72;;;;;;;;;;5034313;28;20368;-74
2023/05/15 12:58:47;;;;;;;11.45;6.95;;;;;;;;;;5033487;28;20040;-73
2023/05/15 13:01:15;;;;;;;9.88;7.55;;;;;;;;;;5016523;28;20033;-73
2023/05/15 13:03:44;;;;;;;7.90;6.13;;;;;;;;;;5034139;28;20021;-73
2023/05/15 13:06:10;;;;;;;9.63;7.00;;;;;;;;;;5033893;28;20033;-73
2023/05/15 13:08:42;;;;;;;7.82;6.30;;;;;;;;;;5033107;28;20095;-73
2023/05/15 13:11:12;;;;;;;7.07;5.68;;;;;;;;;;5034171;28;20028;-73
2023/05/15 13:13:42;;;;;;;9.43;6.60;;;;;;;;;;5033922;28;20024;-74
2023/05/15 13:16:17;;;;;;;9.00;6.25;;;;;;;;;;5033798;28;20104;-74
2023/05/15 13:18:43;;;;;;;8.65;5.55;;;;;;;;;;5033001;28;20104;-74
2023/05/15 13:21:09;;;;;;;6.22;4.55;;;;;;;;;;5034146;28;20444;-74
2023/05/15 13:23:35;;;;;;;5.07;4.40;;;;;;;;;;5032595;28;20036;-74
2023/05/15 13:26:01;;;;;;;6.43;3.63;;;;;;;;;;5033451;28;20029;-73
2023/05/15 13:28:27;;;;;;;7.25;4.50;;;;;;;;;;5031385;28;20080;-74
2023/05/15 13:30:53;;;;;;;9.25;4.13;;;;;;;;;;5012212;28;20029;-73
2023/05/15 13:33:19;;;;;;;5.57;5.00;;;;;;;;;;5012818;28;20435;-74
2023/05/15 13:35:45;;;;;;;9.20;5.90;;;;;;;;;;5013119;28;20022;-73
2023/05/15 13:38:11;;;;;;;11.35;6.72;;;;;;;;;;5012043;28;20460;-74
2023/05/15 13:40:37;;;;;;;7.65;6.15;;;;;;;;;;5012601;28;20113;-74
2023/05/15 13:43:05;;;;;;;8.48;6.63;;;;;;;;;;5012643;28;20488;-74
2023/05/15 13:45:31;;;;;;;13.50;7.00;;;;;;;;;;5013640;28;20081;-74
2023/05/15 13:47:57;;;;;;;13.43;6.95;;;;;;;;;;5012833;28;20026;-74
2023/05/15 13:50:23;;;;;;;7.47;5.93;;;;;;;;;;5013411;28;20075;-74
2023/05/15 13:52:49;;;;;;;7.70;5.90;;;;;;;;;;5013395;28;20064;-74
2023/05/15 13:55:15;;;;;;;7.90;5.85;;;;;;;;;;5013154;28;20025;-74
2023/05/15 13:57:42;;;;;;;6.53;5.03;;;;;;;;;;5012602;28;20037;-74
2023/05/15 14:00:12;;;;;;;6.45;5.10;;;;;;;;;;5013293;28;20034;-74
2023/05/15 14:02:42;;;;;;;7.43;5.55;;;;;;;;;;5013319;28;20030;-73
2023/05/15 14:05:09;;;;;;;9.80;6.05;;;;;;;;;;5013068;28;20022;-74
2023/05/15 14:07:35;;;;;;;9.15;6.72;;;;;;;;;;5012769;28;20065;-74
2023/05/15 14:10:01;;;;;;;11.02;5.70;;;;;;;;;;5013235;28;20026;-74
2023/05/15 14:12:27;;;;;;;12.38;6.18;;;;;;;;;;5013201;28;20030;-73
2023/05/15 14:14:53;;;;;;;9.10;6.18;;;;;;;;;;4995613;28;20412;-74
2023/05/15 14:17:19;;;;;;;9.07;5.90;;;;;;;;;;5012868;28;20033;-74
2023/05/15 14:19:45;;;;;;;9.65;6.22;;;;;;;;;;5013599;28;20037;-74
2023/05/15 14:22:11;;;;;;;6.30;5.53;;;;;;;;;;5013746;28;20064;-74
2023/05/15 14:24:37;;;;;;;7.60;5.50;;;;;;;;;;5013299;28;20034;-74
2023/05/15 14:27:04;;;;;;;11.57;6.10;;;;;;;;;;5012251;28;20477;-74
2023/05/15 14:29:30;;;;;;;8.60;6.03;;;;;;;;;;5012515;28;20037;-73
2023/05/15 14:31:56;;;;;;;10.73;5.80;;;;;;;;;;5012569;28;20026;-74
2023/05/15 14:34:22;;;;;;;7.43;5.68;;;;;;;;;;5012207;28;20026;-74
2023/05/15 14:36:49;;;;;;;7.80;5.53;;;;;;;;;;5012051;28;20029;-74
2023/05/15 14:39:15;;;;;;;12.30;6.32;;;;;;;;;;5011575;28;20167;-74